Terminal Aerodrome Forecast
Issued by NWS Mobile, AL

Home | Current Version | Previous Version | Text Only | Print | Product List | Glossary On
Versions: 1 2 3 4 5 6 7 8 9 10 11 12 13 14 15 16 17 18 19 20 21 22 23 24 25 26 27 28 29 30
000
FTUS44 KMOB 210527
TAFMOB
TAF
KMOB 210527Z 2106/2206 08005KT P6SM VCSH SCT025 OVC080
     FM210700 11005KT P6SM BKN050 OVC080
     FM211200 06005KT P6SM SCT010 OVC020
      TEMPO 2118/2122 VRB15G25KT 2SM TSRA SCT010CB BKN025 OVC080=

USA.gov is the U.S. government's official web portal to all federal, state and local government web resources and services.